Time;durP1;ratioP1;P1;durP2;ratioP2;P2;SDS_P1;SDS_P2;PMS_P1;PMS_P2;Temp;Humidity;BMP_temperature;BMP_pressure;BME280_temperature;BME280_humidity;BME280_pressure;Samples;Min_cycle;Max_cycle;Signal;HPM_P1;HPM_P2
2023/12/12 00:01:00;;;;;;;31.45;29.05;;;;;;;-1.00;100.00;100967.59;5043473;28;20067;-71
2023/12/12 00:03:30;;;;;;;29.95;27.65;;;;;;;-1.12;100.00;100970.34;5043003;28;20048;-71
2023/12/12 00:05:57;;;;;;;32.13;29.55;;;;;;;-1.36;100.00;100970.53;5034671;28;20049;-71
2023/12/12 00:08:24;;;;;;;38.33;35.45;;;;;;;-1.27;100.00;100973.25;5033080;28;20053;-71
2023/12/12 00:10:52;;;;;;;37.60;34.42;;;;;;;-1.11;100.00;100970.25;5032293;28;20057;-71
2023/12/12 00:13:19;;;;;;;40.20;37.13;;;;;;;-1.25;100.00;100965.28;5042528;28;20056;-71
2023/12/12 00:15:48;;;;;;;36.72;34.03;;;;;;;-1.31;100.00;100974.44;5040395;28;20042;-71
2023/12/12 00:18:15;;;;;;;39.20;36.35;;;;;;;-1.20;100.00;100960.56;5041690;28;20072;-71
2023/12/12 00:20:42;;;;;;;35.75;33.15;;;;;;;-1.32;100.00;100966.75;5040316;28;20064;-71
2023/12/12 00:23:09;;;;;;;36.78;34.13;;;;;;;-1.33;100.00;100947.69;5034674;28;20064;-71
2023/12/12 00:25:38;;;;;;;35.42;32.75;;;;;;;-1.21;100.00;100961.47;5036991;28;20424;-71
2023/12/12 00:28:07;;;;;;;38.90;35.92;;;;;;;-1.22;100.00;100949.41;5037767;28;20052;-70
2023/12/12 00:30:33;;;;;;;46.63;43.08;;;;;;;-1.29;100.00;100964.72;5040030;28;20836;-71
2023/12/12 00:33:01;;;;;;;50.30;46.28;;;;;;;-1.24;100.00;100959.13;5039326;28;20053;-71
2023/12/12 00:35:28;;;;;;;43.63;40.22;;;;;;;-1.23;100.00;100966.84;5034376;28;20046;-71
2023/12/12 00:37:54;;;;;;;38.00;35.03;;;;;;;-1.08;100.00;100967.38;5032353;28;20049;-71
2023/12/12 00:40:21;;;;;;;45.00;41.35;;;;;;;-1.12;100.00;100965.13;5033191;28;20527;-71
2023/12/12 00:42:48;;;;;;;45.97;42.28;;;;;;;-1.04;100.00;100974.00;5033168;28;20053;-71
2023/12/12 00:45:17;;;;;;;41.38;38.28;;;;;;;-0.91;100.00;100968.59;5041118;28;20052;-71
2023/12/12 00:47:44;;;;;;;53.88;50.08;;;;;;;-1.06;100.00;100967.25;5040182;28;20063;-71
2023/12/12 00:50:11;;;;;;;50.45;46.83;;;;;;;-0.86;100.00;100973.44;5030680;28;20053;-71
2023/12/12 00:52:37;;;;;;;54.38;49.70;;;;;;;-1.08;100.00;100977.00;5030132;28;20484;-71
2023/12/12 00:55:07;;;;;;;50.55;46.53;;;;;;;-0.87;100.00;100966.59;5036534;28;20060;-71
2023/12/12 00:57:34;;;;;;;52.83;49.03;;;;;;;-0.81;100.00;100976.53;5043578;28;20053;-71
2023/12/12 01:00:01;;;;;;;50.10;46.05;;;;;;;-0.76;100.00;100967.34;5029702;28;20053;-71
2023/12/12 01:02:36;;;;;;;46.85;43.20;;;;;;;-0.78;100.00;100976.28;5043875;28;20422;-71
2023/12/12 01:05:04;;;;;;;39.22;36.35;;;;;;;-0.79;100.00;100970.19;5037381;28;20432;-71
2023/12/12 01:07:30;;;;;;;38.75;35.95;;;;;;;-0.70;100.00;100960.78;5034657;28;20049;-71
2023/12/12 01:09:57;;;;;;;39.97;36.97;;;;;;;-0.73;100.00;100966.25;5034531;28;20057;-71
2023/12/12 01:12:25;;;;;;;41.67;38.38;;;;;;;-0.81;100.00;100969.53;5036073;28;20053;-71
2023/12/12 01:14:58;;;;;;;49.22;45.65;;;;;;;-0.85;100.00;100972.50;5042183;28;20053;-71
2023/12/12 01:17:25;;;;;;;49.20;45.47;;;;;;;-0.95;100.00;100973.25;5045634;28;20049;-71
2023/12/12 01:19:53;;;;;;;43.72;40.35;;;;;;;-0.77;100.00;100973.53;5033396;28;20056;-71
2023/12/12 01:22:20;;;;;;;55.88;52.05;;;;;;;-0.70;100.00;100961.66;5030959;28;20058;-76
2023/12/12 01:24:58;;;;;;;41.42;38.33;;;;;;;-0.63;100.00;100975.00;5045628;28;20417;-76
2023/12/12 01:27:25;;;;;;;38.85;35.95;;;;;;;-0.50;100.00;100966.97;5041179;28;20082;-76
2023/12/12 01:30:04;;;;;;;40.75;37.55;;;;;;;-0.48;100.00;100968.50;5041167;28;20535;-71
2023/12/12 01:32:31;;;;;;;48.75;45.45;;;;;;;-0.54;100.00;100957.78;5041633;28;20053;-74
2023/12/12 01:35:01;;;;;;;44.88;41.17;;;;;;;-0.50;100.00;100954.75;5037593;28;20050;-75
2023/12/12 01:37:28;;;;;;;39.15;36.20;;;;;;;-0.42;100.00;100945.44;5033418;28;20049;-75
2023/12/12 01:39:57;;;;;;;36.10;33.40;;;;;;;-0.45;100.00;100954.38;5036838;28;20048;-71
2023/12/12 01:42:24;;;;;;;37.47;34.38;;;;;;;-0.53;100.00;100952.41;5031869;28;20745;-75
2023/12/12 01:44:53;;;;;;;42.15;39.05;;;;;;;-0.47;100.00;100961.50;5037184;28;20057;-73
2023/12/12 01:47:21;;;;;;;36.90;34.08;;;;;;;-0.46;100.00;100966.59;5021450;28;20059;-71
2023/12/12 01:49:48;;;;;;;40.08;36.90;;;;;;;-0.35;100.00;100967.47;5044045;28;20060;-75
2023/12/12 01:52:17;;;;;;;39.50;36.00;;;;;;;-0.24;100.00;100963.00;5035226;28;20045;-76
2023/12/12 01:54:47;;;;;;;47.60;43.53;;;;;;;-0.26;100.00;100958.88;5039781;28;20497;-76
2023/12/12 01:57:17;;;;;;;45.80;41.78;;;;;;;-0.42;100.00;100951.53;5040388;28;20064;-76
2023/12/12 01:59:49;;;;;;;38.13;35.33;;;;;;;-0.51;100.00;100952.28;5039066;28;20504;-76
2023/12/12 02:02:17;;;;;;;34.92;32.33;;;;;;;-0.72;100.00;100966.16;5040076;28;20061;-76
2023/12/12 02:04:44;;;;;;;38.47;35.58;;;;;;;-0.79;100.00;100970.19;5032099;28;20076;-76
2023/12/12 02:07:14;;;;;;;40.60;37.78;;;;;;;-0.54;100.00;100969.03;5040238;28;20053;-76
2023/12/12 02:09:42;;;;;;;45.15;42.15;;;;;;;-0.52;100.00;100955.84;5030712;28;20053;-76
2023/12/12 02:12:09;;;;;;;40.42;37.42;;;;;;;-0.47;100.00;100974.56;5040259;28;20057;-76
2023/12/12 02:14:37;;;;;;;36.80;34.00;;;;;;;-0.49;100.00;101005.97;5036149;28;20080;-76
2023/12/12 02:17:05;;;;;;;39.42;36.50;;;;;;;-0.38;100.00;101018.16;5037360;28;20045;-76
2023/12/12 02:19:31;;;;;;;41.40;38.30;;;;;;;-0.35;100.00;101004.03;5031948;28;20433;-76
2023/12/12 02:22:00;;;;;;;46.08;42.42;;;;;;;-0.33;100.00;101010.78;5037781;28;20436;-76
2023/12/12 02:24:28;;;;;;;45.10;41.70;;;;;;;-0.23;100.00;101013.44;5035355;28;20056;-76
2023/12/12 02:26:56;;;;;;;52.60;48.60;;;;;;;0.09;100.00;101031.63;5031262;28;20053;-76
2023/12/12 02:29:23;;;;;;;58.63;54.83;;;;;;;0.15;100.00;101023.28;5039402;28;20127;-76
2023/12/12 02:31:50;;;;;;;58.40;54.60;;;;;;;0.39;100.00;101028.19;5030605;28;20057;-76
2023/12/12 02:34:17;;;;;;;54.00;50.10;;;;;;;0.30;100.00;101023.72;5041002;28;20544;-76
2023/12/12 02:36:44;;;;;;;52.85;48.63;;;;;;;0.50;100.00;101015.97;5043497;28;20056;-76
2023/12/12 02:39:13;;;;;;;57.20;53.35;;;;;;;0.34;100.00;101016.47;5033609;28;20103;-76
2023/12/12 02:41:40;;;;;;;43.08;39.78;;;;;;;0.43;100.00;101031.34;5045561;28;20428;-76
2023/12/12 02:44:08;;;;;;;45.78;42.20;;;;;;;0.61;100.00;101026.31;5039388;28;20544;-71
2023/12/12 02:46:39;;;;;;;51.50;47.45;;;;;;;0.57;100.00;101017.91;5034143;28;20057;-71
2023/12/12 02:49:07;;;;;;;53.13;48.85;;;;;;;0.53;100.00;101013.09;5029670;28;20502;-76
2023/12/12 02:51:33;;;;;;;53.42;47.75;;;;;;;0.56;100.00;101018.88;5033878;28;20081;-76
2023/12/12 02:54:00;;;;;;;51.85;47.65;;;;;;;0.39;100.00;101022.97;5039644;28;20057;-76
2023/12/12 02:56:32;;;;;;;56.17;51.78;;;;;;;0.54;100.00;101014.72;5038870;28;20052;-76
2023/12/12 02:58:59;;;;;;;48.63;44.72;;;;;;;0.32;100.00;101029.66;5042434;28;20045;-76
2023/12/12 03:01:26;;;;;;;50.88;46.90;;;;;;;0.35;100.00;101008.47;5037793;28;20711;-76
2023/12/12 03:03:53;;;;;;;50.10;46.10;;;;;;;0.36;100.00;100998.84;5030961;28;20045;-76
2023/12/12 03:06:20;;;;;;;52.45;48.45;;;;;;;0.36;100.00;100999.69;5038204;28;20049;-76
2023/12/12 03:08:47;;;;;;;41.47;37.85;;;;;;;0.14;100.00;101010.31;5047929;28;20053;-76
2023/12/12 03:11:14;;;;;;;48.53;44.72;;;;;;;0.29;100.00;100997.75;5035568;28;20200;-76
2023/12/12 03:13:42;;;;;;;47.08;42.88;;;;;;;0.41;100.00;100994.88;5032552;28;20500;-76
2023/12/12 03:16:09;;;;;;;52.53;48.38;;;;;;;0.34;100.00;100977.28;5049625;28;20048;-76
2023/12/12 03:18:36;;;;;;;48.40;44.80;;;;;;;0.30;100.00;100954.97;5035293;28;20439;-76
2023/12/12 03:21:03;;;;;;;49.65;45.78;;;;;;;0.25;100.00;100942.31;5040795;28;20054;-76
2023/12/12 03:23:36;;;;;;;42.60;39.15;;;;;;;0.40;100.00;100940.16;5041365;28;20413;-76
2023/12/12 03:26:07;;;;;;;46.30;42.63;;;;;;;0.36;100.00;100952.63;5034238;28;20061;-76
2023/12/12 03:28:34;;;;;;;46.50;43.00;;;;;;;0.17;100.00;100958.63;5044384;28;20493;-76
2023/12/12 03:31:03;;;;;;;50.38;46.47;;;;;;;0.48;100.00;100963.81;5038238;28;20060;-76
2023/12/12 03:33:29;;;;;;;51.17;47.25;;;;;;;0.41;100.00;100955.69;5034142;28;20056;-77
2023/12/12 03:35:56;;;;;;;58.88;54.67;;;;;;;0.45;100.00;100944.03;5038811;28;20045;-76
2023/12/12 03:38:26;;;;;;;55.10;50.88;;;;;;;0.55;100.00;100940.59;5042493;28;20726;-76
2023/12/12 03:40:53;;;;;;;47.00;43.33;;;;;;;0.55;100.00;100932.75;5033055;28;20107;-75
2023/12/12 03:43:23;;;;;;;46.05;42.33;;;;;;;0.56;100.00;100923.94;5034807;28;20068;-71
2023/12/12 03:45:52;;;;;;;48.72;44.92;;;;;;;0.58;100.00;100933.31;5036091;28;20053;-70
2023/12/12 03:48:20;;;;;;;44.38;40.97;;;;;;;0.69;100.00;100945.41;5043460;28;20087;-71
2023/12/12 03:50:49;;;;;;;47.80;43.72;;;;;;;0.60;100.00;100939.22;5035142;28;20053;-76
2023/12/12 03:53:23;;;;;;;47.72;43.97;;;;;;;0.77;100.00;100934.28;5036670;28;20083;-76
2023/12/12 03:55:49;;;;;;;41.58;38.28;;;;;;;0.79;100.00;100941.03;5041235;28;20136;-77
2023/12/12 03:58:27;;;;;;;45.90;42.35;;;;;;;0.86;100.00;100943.91;5046835;28;20053;-76
2023/12/12 04:00:53;;;;;;;48.90;44.88;;;;;;;0.69;100.00;100967.16;5047446;28;20060;-76
2023/12/12 04:03:22;;;;;;;43.70;40.30;;;;;;;0.81;100.00;100967.84;5042081;28;20420;-76
2023/12/12 04:05:48;;;;;;;47.47;43.78;;;;;;;0.77;100.00;100976.13;5027729;28;20056;-76
2023/12/12 04:08:15;;;;;;;49.63;45.60;;;;;;;0.77;100.00;100974.31;5043039;28;20049;-76
2023/12/12 04:10:57;;;;;;;42.15;38.85;;;;;;;0.73;100.00;100964.25;5038564;28;20059;-76
2023/12/12 04:13:23;;;;;;;55.38;51.15;;;;;;;0.67;100.00;100969.09;5040839;28;20049;-76
2023/12/12 04:15:50;;;;;;;46.40;42.78;;;;;;;0.63;100.00;100972.09;5045004;28;20053;-77
2023/12/12 04:18:17;;;;;;;42.92;39.63;;;;;;;0.61;100.00;100963.59;5042601;28;20053;-76
2023/12/12 04:20:45;;;;;;;46.67;43.05;;;;;;;0.69;100.00;100971.56;5038983;28;20052;-76
2023/12/12 04:23:11;;;;;;;44.47;41.17;;;;;;;0.64;100.00;100969.38;5030483;28;20061;-75
2023/12/12 04:25:38;;;;;;;48.05;44.45;;;;;;;0.72;100.00;100976.50;5041671;28;20052;-76
2023/12/12 04:28:05;;;;;;;43.13;39.83;;;;;;;0.71;100.00;100971.44;5050831;28;20076;-76
2023/12/12 04:30:32;;;;;;;43.42;39.92;;;;;;;0.74;100.00;100977.22;5041881;28;20053;-76
2023/12/12 04:32:59;;;;;;;39.40;36.40;;;;;;;0.89;100.00;100973.25;5033357;28;20056;-76
2023/12/12 04:35:26;;;;;;;41.90;38.70;;;;;;;0.87;100.00;100975.16;5033325;28;20424;-76
2023/12/12 04:38:13;;;;;;;43.75;40.40;;;;;;;0.82;100.00;100969.53;5034216;28;20469;-76
2023/12/12 04:40:40;;;;;;;39.05;36.05;;;;;;;0.69;100.00;100967.16;5027034;28;20041;-71
2023/12/12 04:43:07;;;;;;;43.38;40.15;;;;;;;0.68;100.00;100975.16;5040059;28;20048;-71
2023/12/12 04:45:40;;;;;;;44.83;41.50;;;;;;;0.97;100.00;100961.25;5034949;28;20060;-71
2023/12/12 04:48:07;;;;;;;40.00;37.10;;;;;;;0.71;100.00;100967.03;5039626;28;20056;-71
2023/12/12 04:50:34;;;;;;;39.35;36.35;;;;;;;0.79;100.00;100956.72;5037442;28;20049;-71
2023/12/12 04:53:01;;;;;;;36.00;33.35;;;;;;;0.81;100.00;100956.56;5032581;28;20045;-75
2023/12/12 04:55:29;;;;;;;39.33;36.53;;;;;;;0.90;100.00;100956.56;5043867;28;20064;-76
2023/12/12 04:57:57;;;;;;;43.70;40.60;;;;;;;1.40;100.00;100942.50;5045629;28;20037;-76
2023/12/12 05:00:23;;;;;;;44.22;41.05;;;;;;;1.18;100.00;100942.81;5043375;28;20527;-76
2023/12/12 05:02:50;;;;;;;45.28;42.08;;;;;;;0.88;100.00;100950.66;5033002;28;20432;-76
2023/12/12 05:05:18;;;;;;;45.47;42.10;;;;;;;0.80;100.00;100968.00;5036485;28;20049;-76
2023/12/12 05:07:45;;;;;;;43.30;40.10;;;;;;;0.84;100.00;100967.59;5042971;28;20056;-76
2023/12/12 05:10:14;;;;;;;42.47;39.38;;;;;;;0.84;100.00;100974.59;5032451;28;20052;-71
2023/12/12 05:12:55;;;;;;;43.90;40.72;;;;;;;0.89;100.00;100957.53;5034033;28;20647;-76
2023/12/12 05:15:34;;;;;;;59.78;54.53;;;;;;;0.98;100.00;100952.47;5030358;28;20057;-71
2023/12/12 05:18:00;;;;;;;60.95;55.17;;;;;;;0.95;100.00;100964.03;5028048;28;20440;-71
2023/12/12 05:20:28;;;;;;;62.45;57.35;;;;;;;1.01;100.00;100965.25;5026529;28;20545;-70
2023/12/12 05:22:53;;;;;;;63.17;58.13;;;;;;;0.96;100.00;100968.28;5025287;28;20045;-76
2023/12/12 05:28:38;;;;;;;;;;;;;;;0.87;100.00;100980.38;5032605;28;20045;-70
2023/12/12 05:31:07;;;;;;;59.47;54.72;;;;;;;0.95;100.00;100977.09;5021056;28;19920;-71
2023/12/12 05:33:34;;;;;;;65.45;60.42;;;;;;;0.93;100.00;100973.78;5041050;28;20049;-71
2023/12/12 05:36:01;;;;;;;60.00;55.20;;;;;;;0.84;100.00;100977.22;5034998;28;20524;-71
2023/12/12 05:38:28;;;;;;;61.58;56.75;;;;;;;0.77;100.00;100958.63;5033064;28;20753;-70
2023/12/12 05:40:56;;;;;;;71.10;65.68;;;;;;;0.87;100.00;100964.69;5029300;28;20052;-71
2023/12/12 05:43:23;;;;;;;61.13;55.97;;;;;;;0.91;100.00;100960.84;5030525;28;20049;-71
2023/12/12 05:45:50;;;;;;;59.50;54.70;;;;;;;0.93;100.00;100968.56;5032330;28;20437;-71
2023/12/12 05:48:18;;;;;;;58.67;54.03;;;;;;;0.92;100.00;100951.22;5041572;28;20103;-71
2023/12/12 05:50:45;;;;;;;70.10;64.05;;;;;;;0.93;100.00;100952.03;5039676;28;20460;-71
2023/12/12 05:53:12;;;;;;;63.00;57.70;;;;;;;0.86;100.00;100972.69;5032134;28;20454;-71
2023/12/12 05:55:39;;;;;;;59.92;54.28;;;;;;;0.89;100.00;100965.38;5039150;28;20045;-71
2023/12/12 05:58:11;;;;;;;60.63;55.92;;;;;;;0.95;100.00;100960.59;5034061;28;20512;-71
2023/12/12 06:00:40;;;;;;;58.78;54.10;;;;;;;1.06;100.00;100956.03;5031170;28;20048;-71
2023/12/12 06:03:08;;;;;;;61.80;56.40;;;;;;;0.99;100.00;100975.03;5038907;28;20053;-76
2023/12/12 06:05:36;;;;;;;56.33;51.90;;;;;;;1.11;100.00;100974.75;5025886;28;20052;-76
2023/12/12 06:08:03;;;;;;;57.65;53.22;;;;;;;1.13;100.00;100956.31;5033528;28;20064;-76
2023/12/12 06:10:30;;;;;;;52.88;48.67;;;;;;;1.13;100.00;100961.53;5039276;28;20053;-76
2023/12/12 06:12:58;;;;;;;58.15;53.55;;;;;;;1.11;100.00;100968.69;5034764;28;20049;-76
2023/12/12 06:15:42;;;;;;;57.33;52.85;;;;;;;1.25;100.00;100959.63;5034036;28;20517;-71
2023/12/12 06:18:15;;;;;;;59.15;54.47;;;;;;;1.16;100.00;100971.75;5038623;28;20041;-76
2023/12/12 06:20:44;;;;;;;59.38;54.67;;;;;;;1.25;100.00;100970.09;5032305;28;20046;-76
2023/12/12 06:23:12;;;;;;;70.63;64.57;;;;;;;1.19;100.00;100970.63;5033679;28;20524;-76
2023/12/12 06:25:39;;;;;;;68.22;62.20;;;;;;;1.20;100.00;100973.09;5035670;28;20135;-76
2023/12/12 06:28:28;;;;;;;71.85;65.68;;;;;;;1.23;100.00;100978.06;5029289;28;20076;-71
2023/12/12 06:30:55;;;;;;;65.05;60.10;;;;;;;1.34;100.00;100982.34;5028001;28;20470;-76
2023/12/12 06:33:30;;;;;;;65.35;60.20;;;;;;;1.31;100.00;100980.00;5030568;28;20049;-71
2023/12/12 06:36:02;;;;;;;66.43;61.42;;;;;;;1.22;100.00;100986.88;5012036;28;20050;-71
2023/12/12 06:38:29;;;;;;;65.78;60.83;;;;;;;1.29;100.00;100981.91;5026610;28;20699;-76
2023/12/12 06:41:13;;;;;;;55.70;51.20;;;;;;;1.32;100.00;100984.25;5028041;28;20056;-71
2023/12/12 06:43:44;;;;;;;59.25;54.53;;;;;;;1.31;100.00;100980.81;5024369;28;20053;-76
2023/12/12 06:46:10;;;;;;;57.30;52.80;;;;;;;1.29;100.00;100989.75;5029479;28;20525;-76
2023/12/12 06:48:38;;;;;;;57.58;53.17;;;;;;;1.21;100.00;100987.84;5036876;28;20045;-77
2023/12/12 06:54:28;;;;;;;67.50;61.90;;;;;;;1.48;100.00;100979.25;5038300;28;20129;-76
2023/12/12 06:57:19;;;;;;;67.22;61.92;;;;;;;1.58;100.00;100982.72;5043295;28;20152;-76
2023/12/12 06:59:46;;;;;;;69.97;64.53;;;;;;;1.53;100.00;100982.28;5031169;28;20045;-76
2023/12/12 07:02:14;;;;;;;67.28;61.78;;;;;;;1.63;100.00;100984.88;5033352;28;20508;-76
2023/12/12 07:04:41;;;;;;;65.55;60.35;;;;;;;1.54;100.00;100981.34;5035189;28;20111;-76
2023/12/12 07:07:13;;;;;;;63.08;57.88;;;;;;;1.84;100.00;100972.41;5031090;28;20046;-76
2023/12/12 07:09:40;;;;;;;55.58;51.08;;;;;;;1.66;100.00;100971.50;5031837;28;20064;-76
2023/12/12 07:12:07;;;;;;;69.68;63.88;;;;;;;1.74;100.00;100978.69;5027903;28;20058;-76
2023/12/12 07:14:34;;;;;;;69.53;64.03;;;;;;;1.74;100.00;100983.91;5032611;28;20427;-76
2023/12/12 07:17:01;;;;;;;60.20;55.10;;;;;;;1.74;100.00;100984.72;5033002;28;20444;-76
2023/12/12 07:19:34;;;;;;;75.97;70.20;;;;;;;1.95;100.00;100978.47;5037714;28;20045;-76
2023/12/12 07:22:01;;;;;;;66.13;60.83;;;;;;;1.92;100.00;100984.81;5027687;28;20119;-76
2023/12/12 07:24:29;;;;;;;69.00;63.50;;;;;;;2.14;100.00;100974.94;5037577;28;20049;-76
2023/12/12 07:26:58;;;;;;;63.90;58.60;;;;;;;2.25;100.00;100974.78;5034055;28;20507;-76
2023/12/12 07:29:25;;;;;;;70.70;65.05;;;;;;;2.26;100.00;100979.84;5033803;28;20409;-76
2023/12/12 07:31:52;;;;;;;78.13;72.05;;;;;;;2.34;100.00;100976.50;5029958;28;20042;-76
2023/12/12 07:34:19;;;;;;;76.70;70.40;;;;;;;2.35;100.00;100969.47;5032313;28;20045;-76
2023/12/12 07:36:46;;;;;;;80.68;74.18;;;;;;;2.43;100.00;100986.13;5037126;28;20536;-76
2023/12/12 07:39:19;;;;;;;86.85;80.05;;;;;;;2.62;100.00;100984.34;5045789;28;20060;-76
2023/12/12 07:45:51;;;;;;;83.95;77.15;;;;;;;2.84;100.00;100985.72;5027621;28;20207;-71
2023/12/12 07:48:19;;;;;;;103.32;94.47;;;;;;;3.01;100.00;100982.28;5026185;28;20513;-71
2023/12/12 07:50:46;;;;;;;89.85;82.78;;;;;;;3.13;100.00;100977.66;5033229;28;20049;-71
2023/12/12 07:53:13;;;;;;;74.75;68.65;;;;;;;3.20;100.00;100986.56;5034168;28;20060;-71
2023/12/12 07:55:40;;;;;;;94.35;87.05;;;;;;;3.41;100.00;100983.59;5029379;28;20049;-71
2023/12/12 07:58:07;;;;;;;108.70;100.20;;;;;;;3.53;100.00;100981.56;5033018;28;20049;-71
2023/12/12 08:00:34;;;;;;;107.85;99.75;;;;;;;3.69;100.00;100976.41;5037835;28;20055;-71
2023/12/12 08:03:05;;;;;;;99.10;90.97;;;;;;;3.79;100.00;100992.91;5046541;28;20110;-70
2023/12/12 08:05:34;;;;;;;114.05;105.78;;;;;;;4.02;100.00;100990.56;5037608;28;20041;-70
2023/12/12 08:08:03;;;;;;;103.15;95.18;;;;;;;4.22;100.00;101001.69;5026065;28;20041;-71
2023/12/12 08:10:31;;;;;;;109.82;101.72;;;;;;;4.34;100.00;101002.22;5026955;28;20115;-71
2023/12/12 08:13:03;;;;;;;101.05;93.55;;;;;;;4.47;100.00;101002.59;5033521;28;20045;-71
2023/12/12 08:15:30;;;;;;;98.43;91.10;;;;;;;4.60;100.00;101002.19;5036174;28;20061;-71
2023/12/12 08:17:57;;;;;;;101.30;93.40;;;;;;;4.62;100.00;100987.03;5038103;28;20053;-71
2023/12/12 08:20:25;;;;;;;97.05;89.75;;;;;;;4.67;100.00;100990.00;5035357;28;20057;-71
2023/12/12 08:22:56;;;;;;;104.63;96.82;;;;;;;4.94;100.00;100985.47;5032053;28;20049;-70
2023/12/12 08:25:24;;;;;;;99.97;92.68;;;;;;;5.01;100.00;100982.00;5029328;28;20057;-71
2023/12/12 08:27:52;;;;;;;95.68;88.47;;;;;;;5.07;100.00;100991.06;5030148;28;20065;-76
2023/12/12 08:30:19;;;;;;;92.20;85.45;;;;;;;5.11;100.00;100991.56;5030828;28;20722;-76
2023/12/12 08:32:49;;;;;;;96.85;90.05;;;;;;;5.29;100.00;100992.22;5027138;28;20061;-76
2023/12/12 08:35:16;;;;;;;99.70;92.55;;;;;;;5.17;100.00;100997.00;5030323;28;20045;-76
2023/12/12 08:44:56;;;;;;;95.78;89.07;;;;;;;5.51;100.00;100982.84;4851052;29;20113;-77
2023/12/12 08:47:23;;;;;;;84.50;78.10;;;;;;;5.59;100.00;100987.28;4888922;28;20050;-76
2023/12/12 08:49:59;;;;;;;89.68;82.55;;;;;;;5.69;100.00;100986.13;4962184;28;20054;-76
2023/12/12 08:52:32;;;;;;;99.88;92.28;;;;;;;5.78;100.00;100975.53;4948953;28;20055;-76
2023/12/12 08:54:59;;;;;;;91.90;85.10;;;;;;;5.57;100.00;100976.06;4959266;28;20107;-76
2023/12/12 08:57:25;;;;;;;93.70;86.72;;;;;;;5.86;100.00;100970.25;4953554;28;20055;-76
2023/12/12 08:59:52;;;;;;;91.75;84.85;;;;;;;5.89;100.00;100975.19;4957596;28;20074;-76
2023/12/12 09:02:21;;;;;;;103.38;95.72;;;;;;;5.87;100.00;100967.47;4946030;28;20059;-76
2023/12/12 09:14:56;;;;;;;97.60;89.85;;;;;;;6.01;100.00;100958.06;4938660;28;20081;-76
2023/12/12 09:17:24;;;;;;;107.97;100.72;;;;;;;5.89;100.00;100960.19;4960599;28;20078;-76
2023/12/12 09:19:51;;;;;;;98.35;91.00;;;;;;;6.05;100.00;100956.75;4955457;28;20057;-76
2023/12/12 09:22:19;;;;;;;88.25;81.95;;;;;;;6.23;100.00;100958.31;4953417;28;20198;-76
2023/12/12 09:24:46;;;;;;;87.20;80.95;;;;;;;6.23;100.00;100961.75;4977637;28;20065;-76
2023/12/12 09:27:15;;;;;;;93.05;86.45;;;;;;;6.19;100.00;100942.81;5022345;28;20424;-71
2023/12/12 09:29:42;;;;;;;83.95;77.85;;;;;;;6.26;100.00;100947.41;5025017;28;20128;-71
2023/12/12 09:32:11;;;;;;;65.30;60.20;;;;;;;6.13;100.00;100955.88;5024925;28;20141;-72
2023/12/12 09:34:40;;;;;;;47.83;43.85;;;;;;;6.22;100.00;100949.56;5026953;28;20057;-72
2023/12/12 09:37:07;;;;;;;50.47;46.55;;;;;;;6.31;100.00;100945.09;5033161;28;20065;-72
2023/12/12 09:39:34;;;;;;;73.50;68.05;;;;;;;6.42;100.00;100960.53;5035363;28;20048;-72
2023/12/12 09:42:01;;;;;;;86.28;80.07;;;;;;;6.33;100.00;100948.38;5039657;28;20049;-72
2023/12/12 09:44:30;;;;;;;90.18;83.78;;;;;;;6.31;100.00;100955.63;5043000;28;20053;-72
2023/12/12 09:46:59;;;;;;;92.97;86.32;;;;;;;6.29;100.00;100954.97;5034346;28;20053;-72
2023/12/12 09:49:27;;;;;;;58.63;53.90;;;;;;;6.60;100.00;100958.47;5045267;28;20056;-72
2023/12/12 09:51:57;;;;;;;62.33;57.42;;;;;;;6.50;100.00;100959.66;5036489;28;20057;-72
2023/12/12 09:54:25;;;;;;;67.55;62.35;;;;;;;6.24;100.00;100955.50;5028733;28;20406;-77
2023/12/12 09:56:55;;;;;;;94.97;88.43;;;;;;;6.33;100.00;100949.19;5043380;28;20556;-72
2023/12/12 09:59:22;;;;;;;61.92;56.67;;;;;;;6.40;100.00;100939.59;5037235;28;20417;-72
2023/12/12 10:01:52;;;;;;;62.70;57.97;;;;;;;6.46;100.00;100948.63;5038998;28;20056;-72
2023/12/12 10:04:27;;;;;;;59.58;53.72;;;;;;;6.53;100.00;100946.94;5039694;28;20037;-77
2023/12/12 10:06:59;;;;;;;55.83;51.17;;;;;;;6.52;100.00;100942.66;5025979;28;20053;-77
2023/12/12 10:09:27;;;;;;;69.63;64.32;;;;;;;6.48;100.00;100943.19;5034272;28;20049;-78
2023/12/12 10:11:55;;;;;;;49.28;45.53;;;;;;;6.60;100.00;100947.09;5039692;28;20057;-78
2023/12/12 10:14:48;;;;;;;75.53;70.32;;;;;;;6.64;100.00;100951.81;5040289;28;20079;-77
2023/12/12 10:17:15;;;;;;;;;;;;;;;6.57;100.00;100956.16;5033910;28;20057;-78
2023/12/12 10:19:42;;;;;;;52.30;48.40;;;;;;;6.39;100.00;100952.97;5039200;28;20377;-78
2023/12/12 10:22:11;;;;;;;71.97;66.97;;;;;;;6.57;100.00;100955.34;5036519;28;20046;-78
2023/12/12 10:24:40;;;;;;;56.95;52.70;;;;;;;6.43;100.00;100951.63;5039361;28;20444;-78
2023/12/12 10:27:23;;;;;;;48.40;44.60;;;;;;;6.42;100.00;100953.44;5051187;28;20088;-72
2023/12/12 10:29:50;;;;;;;43.95;39.95;;;;;;;6.35;100.00;100946.38;5043459;28;20052;-75
2023/12/12 10:32:18;;;;;;;50.08;46.08;;;;;;;6.53;100.00;100941.66;5051342;28;20064;-72
2023/12/12 10:34:56;;;;;;;52.33;48.38;;;;;;;6.79;100.00;100946.63;5027586;28;20080;-77
2023/12/12 10:40:47;;;;;;;67.75;62.75;;;;;;;6.78;100.00;100936.25;5044922;28;20060;-72
2023/12/12 10:43:14;;;;;;;59.33;54.92;;;;;;;6.50;100.00;100928.81;5043306;28;20128;-72
2023/12/12 10:45:42;;;;;;;46.63;42.95;;;;;;;6.57;100.00;100936.88;5048688;28;20463;-72
2023/12/12 10:48:13;;;;;;;36.45;33.45;;;;;;;6.83;100.00;100942.63;5032870;28;20053;-72
2023/12/12 10:50:42;;;;;;;46.40;42.72;;;;;;;6.51;100.00;100940.22;5037295;28;20057;-72
2023/12/12 10:53:14;;;;;;;46.95;43.33;;;;;;;6.93;100.00;100929.22;5035682;28;20059;-73
2023/12/12 10:55:41;;;;;;;;;;;;;;;7.29;100.00;100924.13;5041539;28;20049;-72
2023/12/12 10:58:10;;;;;;;63.67;58.58;;;;;;;8.83;100.00;100913.66;5049393;28;19939;-73
2023/12/12 11:00:40;;;;;;;42.78;38.97;;;;;;;10.12;100.00;100913.31;5044129;28;20121;-72
2023/12/12 11:03:08;;;;;;;35.63;32.20;;;;;;;9.38;100.00;100912.09;5029054;28;20049;-72
2023/12/12 11:05:35;;;;;;;34.08;31.23;;;;;;;10.41;100.00;100906.91;5037563;28;20529;-72
2023/12/12 11:08:05;;;;;;;37.03;33.75;;;;;;;10.69;100.00;100917.41;5049192;28;20056;-72
2023/12/12 11:10:32;;;;;;;35.40;32.50;;;;;;;10.09;100.00;100912.69;5042619;28;20084;-72
2023/12/12 11:13:01;;;;;;;35.78;32.70;;;;;;;10.95;100.00;100912.13;5045564;28;20061;-73
2023/12/12 11:15:35;;;;;;;36.58;33.67;;;;;;;11.10;100.00;100921.72;5040444;28;20056;-72
2023/12/12 11:18:08;;;;;;;37.75;34.80;;;;;;;9.69;100.00;100916.97;5043958;28;20052;-78
2023/12/12 11:20:46;;;;;;;35.95;33.15;;;;;;;9.92;100.00;100914.03;5039439;28;20057;-78
2023/12/12 11:23:52;;;;;;;41.88;33.47;;;;;;;11.02;100.00;100904.16;5034083;28;20858;-78
2023/12/12 11:26:22;;;;;;;35.42;32.47;;;;;;;10.61;100.00;100899.81;5043599;28;20057;-73
2023/12/12 11:28:50;;;;;;;39.35;35.90;;;;;;;11.50;100.00;100895.94;5049773;28;20060;-72
2023/12/12 11:31:27;;;;;;;31.80;29.30;;;;;;;11.06;100.00;100894.75;5033307;28;20473;-72
2023/12/12 11:34:05;;;;;;;37.78;34.00;;;;;;;10.88;100.00;100900.66;5036713;28;20053;-73
2023/12/12 11:36:57;;;;;;;31.63;29.23;;;;;;;10.09;100.00;100896.75;5036824;28;20072;-78
2023/12/12 11:39:37;;;;;;;34.07;27.07;;;;;;;10.15;100.00;100884.53;5035121;28;20057;-78
2023/12/12 11:42:06;;;;;;;25.05;23.25;;;;;;;11.26;100.00;100881.44;5042902;28;20697;-78
2023/12/12 11:44:43;;;;;;;26.25;24.35;;;;;;;10.34;100.00;100895.44;5031150;28;20115;-78
2023/12/12 11:47:20;;;;;;;28.98;26.75;;;;;;;11.11;100.00;100886.16;5043448;28;20088;-78